Time,TemperatureF,DewpointF,PressureIn,WindDirection,WindDirectionDegrees,WindSpeedMPH,WindSpeedGustMPH,Humidity,HourlyPrecipIn,Conditions,Clouds,dailyrainin,SoftwareType,DateUTC
2013-01-20 00:00:00,40.9,14.7,30.33,SSW,209,3.0,10.0,34,0.00,,,0.02,WeatherCatV1.02B3,2013-01-20 05:00:00,
2013-01-20 00:05:00,40.9,16.7,30.33,NW,309,2.0,3.0,37,0.00,,,0.00,WeatherCatV1.02B3,2013-01-20 05:05:00,
2013-01-20 00:10:00,40.7,15.8,30.33,SE,142,0.0,4.0,36,0.00,,,0.00,WeatherCatV1.02B3,2013-01-20 05:10:00,
2013-01-20 00:15:00,40.2,16.0,30.33,SSE,165,1.0,4.0,37,0.00,,,0.00,WeatherCatV1.02B3,2013-01-20 05:15:00,
2013-01-20 00:20:00,40.2,17.2,30.32,South,186,0.0,3.0,39,0.00,,,0.00,WeatherCatV1.02B3,2013-01-20 05:20:00,
2013-01-20 00:25:00,39.9,15.8,30.32,WNW,294,0.0,2.0,37,0.00,,,0.00,WeatherCatV1.02B3,2013-01-20 05:25:00,
2013-01-20 00:30:00,39.7,15.6,30.32,WNW,288,0.0,0.0,37,0.00,,,0.00,WeatherCatV1.02B3,2013-01-20 05:30:00,
2013-01-20 00:35:00,39.7,16.2,30.32,South,184,0.0,5.0,38,0.00,,,0.00,WeatherCatV1.02B3,2013-01-20 05:35:00,
2013-01-20 00:36:00,39.6,17.3,30.32,WNW,296,2.0,2.0,40,0.00,,,0.00,WeatherCatV1.02B3,2013-01-20 05:36:00,
2013-01-20 00:41:00,39.5,16.6,30.31,NNE,32,0.0,1.0,39,0.00,,,0.00,WeatherCatV1.02B3,2013-01-20 05:41:00,
2013-01-20 00:46:00,39.1,18.0,30.31,NE,34,0.0,0.0,42,0.00,,,0.00,WeatherCatV1.02B3,2013-01-20 05:46:00,
2013-01-20 00:51:00,39.0,15.6,30.31,WSW,249,0.0,5.0,38,0.00,,,0.00,WeatherCatV1.02B3,2013-01-20 05:51:00,
2013-01-20 00:56:00,39.1,16.8,30.31,West,271,0.0,0.0,40,0.00,,,0.00,WeatherCatV1.02B3,2013-01-20 05:56:00,
2013-01-20 01:01:00,38.9,17.2,30.31,SSE,149,0.0,1.0,41,0.00,,,0.00,WeatherCatV1.02B3,2013-01-20 06:01:00,
2013-01-20 01:06:00,38.8,17.1,30.31,ENE,59,0.0,1.0,41,0.00,,,0.00,WeatherCatV1.02B3,2013-01-20 06:06:00,
2013-01-20 01:11:00,38.5,17.4,30.31,NE,38,0.0,0.0,42,0.00,,,0.00,WeatherCatV1.02B3,2013-01-20 06:11:00,
2013-01-20 01:16:00,38.3,17.2,30.31,NNW,330,2.0,9.0,42,0.00,,,0.00,WeatherCatV1.02B3,2013-01-20 06:16:00,
2013-01-20 01:21:00,38.1,17.1,30.31,WNW,300,1.0,4.0,42,0.00,,,0.00,WeatherCatV1.02B3,2013-01-20 06:21:00,
2013-01-20 01:26:00,38.1,15.9,30.30,SW,221,0.0,4.0,40,0.00,,,0.00,WeatherCatV1.02B3,2013-01-20 06:26:00,
2013-01-20 01:31:00,38.3,15.5,30.30,NE,36,4.0,11.0,39,0.00,,,0.00,WeatherCatV1.02B3,2013-01-20 06:31:00,
2013-01-20 01:36:00,38.7,15.3,30.30,WNW,294,2.0,6.0,38,0.00,,,0.00,WeatherCatV1.02B3,2013-01-20 06:36:00,
2013-01-20 01:41:00,39.2,15.8,30.30,West,273,3.0,6.0,38,0.00,,,0.00,WeatherCatV1.02B3,2013-01-20 06:41:00,
2013-01-20 01:46:00,39.3,15.8,30.30,NNE,22,1.0,7.0,38,0.00,,,0.00,WeatherCatV1.02B3,2013-01-20 06:46:00,
2013-01-20 01:51:00,39.2,16.3,30.30,SE,142,0.0,1.0,39,0.00,,,0.00,WeatherCatV1.02B3,2013-01-20 06:51:00,
2013-01-20 01:56:00,39.2,16.3,30.30,NW,318,0.0,5.0,39,0.00,,,0.00,WeatherCatV1.02B3,2013-01-20 06:56:00,
2013-01-20 02:01:00,39.0,16.2,30.30,NW,313,2.0,9.0,39,0.00,,,0.00,WeatherCatV1.02B3,2013-01-20 07:01:00,
2013-01-20 02:06:00,38.8,16.0,30.31,NW,304,3.0,4.0,39,0.00,,,0.00,WeatherCatV1.02B3,2013-01-20 07:06:00,
2013-01-20 02:11:00,38.7,15.9,30.30,SW,214,1.0,5.0,39,0.00,,,0.00,WeatherCatV1.02B3,2013-01-20 07:11:00,
2013-01-20 02:17:00,38.7,15.9,30.30,NW,310,0.0,1.0,39,0.00,,,0.00,WeatherCatV1.02B3,2013-01-20 07:17:00,
2013-01-20 02:22:00,38.6,17.0,30.30,West,281,0.0,7.0,41,0.00,,,0.00,WeatherCatV1.02B3,2013-01-20 07:22:00,
2013-01-20 02:27:00,38.4,16.2,30.30,NW,321,3.0,3.0,40,0.00,,,0.00,WeatherCatV1.02B3,2013-01-20 07:27:00,
2013-01-20 02:32:00,38.3,16.1,30.30,NNE,30,2.0,5.0,40,0.00,,,0.00,WeatherCatV1.02B3,2013-01-20 07:32:00,
2013-01-20 02:37:00,38.2,16.6,30.30,NNW,331,0.0,3.0,41,0.00,,,0.00,WeatherCatV1.02B3,2013-01-20 07:37:00,
2013-01-20 02:42:00,38.2,15.4,30.30,NE,35,5.0,9.0,39,0.00,,,0.00,WeatherCatV1.02B3,2013-01-20 07:42:00,
2013-01-20 02:47:00,38.5,15.7,30.30,NNE,31,0.0,1.0,39,0.00,,,0.00,WeatherCatV1.02B3,2013-01-20 07:47:00,
2013-01-20 02:52:00,38.7,16.5,30.30,WNW,302,2.0,2.0,40,0.00,,,0.00,WeatherCatV1.02B3,2013-01-20 07:52:00,
2013-01-20 02:57:00,38.8,16.0,30.30,NNW,345,4.0,7.0,39,0.00,,,0.00,WeatherCatV1.02B3,2013-01-20 07:57:00,
2013-01-20 03:02:00,38.9,16.7,30.30,NW,325,5.0,12.0,40,0.00,,,0.00,WeatherCatV1.02B3,2013-01-20 08:02:00,
2013-01-20 03:07:00,38.9,15.5,30.30,NE,38,3.0,7.0,38,0.00,,,0.00,WeatherCatV1.02B3,2013-01-20 08:07:00,
2013-01-20 03:12:00,39.1,16.3,30.29,SSW,209,1.0,8.0,39,0.00,,,0.00,WeatherCatV1.02B3,2013-01-20 08:12:00,
2013-01-20 03:16:00,39.0,15.6,30.30,NW,304,3.0,4.0,38,0.00,,,0.00,WeatherCatV1.02B3,2013-01-20 08:16:00,
2013-01-20 03:21:00,39.1,15.7,30.29,North,0,0.0,4.0,38,0.00,,,0.00,WeatherCatV1.02B3,2013-01-20 08:21:00,
2013-01-20 03:26:00,39.1,14.4,30.29,WNW,302,0.0,2.0,36,0.00,,,0.00,WeatherCatV1.02B3,2013-01-20 08:26:00,
2013-01-20 03:31:00,39.5,14.1,30.28,SSW,198,0.0,11.0,35,0.00,,,0.00,WeatherCatV1.02B3,2013-01-20 08:31:00,
2013-01-20 03:36:00,39.7,15.0,30.29,West,271,0.0,6.0,36,0.00,,,0.00,WeatherCatV1.02B3,2013-01-20 08:36:00,
2013-01-20 03:41:00,39.7,14.3,30.29,NNW,327,1.0,3.0,35,0.00,,,0.00,WeatherCatV1.02B3,2013-01-20 08:41:00,
2013-01-20 03:46:00,39.6,14.9,30.29,ENE,69,9.0,11.0,36,0.00,,,0.00,WeatherCatV1.02B3,2013-01-20 08:46:00,
2013-01-20 03:51:00,39.1,15.7,30.28,NE,38,2.0,9.0,38,0.00,,,0.00,WeatherCatV1.02B3,2013-01-20 08:51:00,
2013-01-20 03:56:00,38.8,14.8,30.28,NNW,334,3.0,4.0,37,0.00,,,0.00,WeatherCatV1.02B3,2013-01-20 08:56:00,
2013-01-20 04:01:00,38.9,14.2,30.28,South,190,0.0,4.0,36,0.00,,,0.00,WeatherCatV1.02B3,2013-01-20 09:01:00,
2013-01-20 04:06:00,39.0,14.3,30.28,NW,314,0.0,5.0,36,0.00,,,0.00,WeatherCatV1.02B3,2013-01-20 09:06:00,
2013-01-20 04:11:00,39.1,14.4,30.28,NNE,17,6.0,6.0,36,0.00,,,0.00,WeatherCatV1.02B3,2013-01-20 09:11:00,
2013-01-20 04:16:00,39.0,14.3,30.28,ENE,57,0.0,4.0,36,0.00,,,0.00,WeatherCatV1.02B3,2013-01-20 09:16:00,
2013-01-20 04:17:00,39.0,15.0,30.28,WNW,301,1.0,4.0,37,0.00,,,0.00,WeatherCatV1.02B3,2013-01-20 09:17:00,
2013-01-20 04:22:00,39.0,14.3,30.27,NE,51,5.0,14.0,36,0.00,,,0.00,WeatherCatV1.02B3,2013-01-20 09:22:00,
2013-01-20 04:27:00,38.8,14.2,30.27,ENE,59,9.0,14.0,36,0.00,,,0.00,WeatherCatV1.02B3,2013-01-20 09:27:00,
2013-01-20 04:32:00,39.1,13.8,30.27,NE,42,10.0,16.0,35,0.00,,,0.00,WeatherCatV1.02B3,2013-01-20 09:32:00,
2013-01-20 04:37:00,39.2,13.2,30.27,ENE,63,1.0,7.0,34,0.00,,,0.00,WeatherCatV1.02B3,2013-01-20 09:37:00,
2013-01-20 04:42:00,39.2,13.9,30.28,NNW,347,7.0,11.0,35,0.00,,,0.00,WeatherCatV1.02B3,2013-01-20 09:42:00,
2013-01-20 04:47:00,39.1,14.4,30.27,SSW,211,5.0,12.0,36,0.00,,,0.00,WeatherCatV1.02B3,2013-01-20 09:47:00,
2013-01-20 04:52:00,39.0,15.0,30.27,NNW,331,8.0,11.0,37,0.00,,,0.00,WeatherCatV1.02B3,2013-01-20 09:52:00,
2013-01-20 04:57:00,38.7,15.3,30.27,NNE,30,12.0,13.0,38,0.00,,,0.00,WeatherCatV1.02B3,2013-01-20 09:57:00,
2013-01-20 05:02:00,38.4,16.2,30.27,NNE,22,3.0,11.0,40,0.00,,,0.00,WeatherCatV1.02B3,2013-01-20 10:02:00,
2013-01-20 05:07:00,38.4,15.6,30.26,South,178,6.0,12.0,39,0.00,,,0.00,WeatherCatV1.02B3,2013-01-20 10:07:00,
2013-01-20 05:12:00,38.3,16.7,30.26,NNW,330,5.0,13.0,41,0.00,,,0.00,WeatherCatV1.02B3,2013-01-20 10:12:00,
2013-01-20 05:17:00,38.4,16.2,30.26,North,0,3.0,11.0,40,0.00,,,0.00,WeatherCatV1.02B3,2013-01-20 10:17:00,
2013-01-20 05:22:00,38.3,17.8,30.26,ENE,69,4.0,7.0,43,0.00,,,0.00,WeatherCatV1.02B3,2013-01-20 10:22:00,
2013-01-20 05:27:00,38.1,18.1,30.26,WNW,301,9.0,13.0,44,0.00,,,0.00,WeatherCatV1.02B3,2013-01-20 10:27:00,
2013-01-20 05:32:00,38.2,18.2,30.26,WNW,289,1.0,15.0,44,0.00,,,0.00,WeatherCatV1.02B3,2013-01-20 10:32:00,
2013-01-20 05:37:00,38.1,18.7,30.26,WNW,283,4.0,13.0,45,0.00,,,0.00,WeatherCatV1.02B3,2013-01-20 10:37:00,
2013-01-20 05:42:00,38.0,19.1,30.26,North,0,7.0,10.0,46,0.00,,,0.00,WeatherCatV1.02B3,2013-01-20 10:42:00,
2013-01-20 05:47:00,37.9,19.5,30.25,South,188,1.0,25.0,47,0.00,,,0.00,WeatherCatV1.02B3,2013-01-20 10:47:00,
2013-01-20 05:52:00,37.9,19.5,30.25,North,0,7.0,9.0,47,0.00,,,0.00,WeatherCatV1.02B3,2013-01-20 10:52:00,
2013-01-20 05:57:00,37.7,20.8,30.25,NNW,341,11.0,15.0,50,0.00,,,0.00,WeatherCatV1.02B3,2013-01-20 10:57:00,
2013-01-20 06:02:00,37.6,19.7,30.25,NE,34,5.0,17.0,48,0.00,,,0.00,WeatherCatV1.02B3,2013-01-20 11:02:00,
2013-01-20 06:07:00,37.6,21.1,30.26,East,83,8.0,14.0,51,0.00,,,0.00,WeatherCatV1.02B3,2013-01-20 11:07:00,
2013-01-20 06:12:00,37.4,21.4,30.26,NNW,335,3.0,16.0,52,0.00,,,0.00,WeatherCatV1.02B3,2013-01-20 11:12:00,
2013-01-20 06:17:00,37.6,22.5,30.25,ENE,61,9.0,16.0,54,0.00,,,0.00,WeatherCatV1.02B3,2013-01-20 11:17:00,
2013-01-20 06:22:00,37.6,22.9,30.25,NNW,344,4.0,21.0,55,0.00,,,0.00,WeatherCatV1.02B3,2013-01-20 11:22:00,
2013-01-20 06:27:00,37.6,22.5,30.26,North,5,16.0,21.0,54,0.00,,,0.00,WeatherCatV1.02B3,2013-01-20 11:27:00,
2013-01-20 06:32:00,37.5,22.8,30.25,NNE,22,3.0,15.0,55,0.00,,,0.00,WeatherCatV1.02B3,2013-01-20 11:32:00,
2013-01-20 06:37:00,37.5,22.8,30.25,NW,315,4.0,16.0,55,0.00,,,0.00,WeatherCatV1.02B3,2013-01-20 11:37:00,
2013-01-20 06:42:00,37.3,22.6,30.25,NNE,14,4.0,16.0,55,0.00,,,0.00,WeatherCatV1.02B3,2013-01-20 11:42:00,
2013-01-20 06:47:00,37.3,23.5,30.25,NNE,29,7.0,18.0,57,0.00,,,0.00,WeatherCatV1.02B3,2013-01-20 11:47:00,
2013-01-20 06:52:00,37.2,23.8,30.25,West,271,6.0,15.0,58,0.00,,,0.00,WeatherCatV1.02B3,2013-01-20 11:52:00,
2013-01-20 06:57:00,37.1,24.1,30.26,ENE,60,4.0,10.0,59,0.00,,,0.00,WeatherCatV1.02B3,2013-01-20 11:57:00,
2013-01-20 07:02:00,37.0,24.4,30.26,NNW,336,4.0,11.0,60,0.00,,,0.00,WeatherCatV1.02B3,2013-01-20 12:02:00,
2013-01-20 07:07:00,37.0,24.8,30.26,NW,326,7.0,16.0,61,0.00,,,0.00,WeatherCatV1.02B3,2013-01-20 12:07:00,
2013-01-20 07:12:00,37.0,25.2,30.25,NNE,12,3.0,12.0,62,0.00,,,0.00,WeatherCatV1.02B3,2013-01-20 12:12:00,
2013-01-20 07:17:00,36.9,25.9,30.26,NW,326,10.0,30.0,64,0.00,,,0.00,WeatherCatV1.02B3,2013-01-20 12:17:00,
2013-01-20 07:22:00,37.0,26.3,30.26,NNW,342,8.0,9.0,65,0.00,,,0.00,WeatherCatV1.02B3,2013-01-20 12:22:00,
2013-01-20 07:27:00,37.0,26.7,30.25,NE,51,6.0,16.0,66,0.00,,,0.00,WeatherCatV1.02B3,2013-01-20 12:27:00,
2013-01-20 07:32:00,36.9,26.6,30.26,East,80,1.0,14.0,66,0.00,,,0.00,WeatherCatV1.02B3,2013-01-20 12:32:00,
2013-01-20 07:37:00,36.8,26.9,30.26,NE,35,6.0,6.0,67,0.00,,,0.00,WeatherCatV1.02B3,2013-01-20 12:37:00,
2013-01-20 07:42:00,36.6,27.1,30.26,WNW,299,3.0,13.0,68,0.00,,,0.00,WeatherCatV1.02B3,2013-01-20 12:42:00,
2013-01-20 07:47:00,36.5,27.3,30.25,North,11,9.0,29.0,69,0.00,,,0.00,WeatherCatV1.02B3,2013-01-20 12:47:00,
2013-01-20 07:52:00,36.4,27.2,30.25,NE,34,12.0,14.0,69,0.00,,,0.00,WeatherCatV1.02B3,2013-01-20 12:52:00,
2013-01-20 07:57:00,36.3,27.5,30.25,North,0,1.0,18.0,70,0.00,,,0.00,WeatherCatV1.02B3,2013-01-20 12:57:00,
2013-01-20 08:02:00,36.3,27.5,30.26,WNW,298,0.0,18.0,70,0.00,,,0.00,WeatherCatV1.02B3,2013-01-20 13:02:00,
2013-01-20 08:07:00,36.3,27.5,30.26,SW,218,1.0,12.0,70,0.00,,,0.00,WeatherCatV1.02B3,2013-01-20 13:07:00,
2013-01-20 08:12:00,36.3,27.5,30.26,NW,317,7.0,7.0,70,0.00,,,0.00,WeatherCatV1.02B3,2013-01-20 13:12:00,
2013-01-20 08:17:00,36.4,27.9,30.26,South,178,1.0,23.0,71,0.00,,,0.00,WeatherCatV1.02B3,2013-01-20 13:17:00,
2013-01-20 08:22:00,36.3,27.8,30.26,NE,44,5.0,13.0,71,0.00,,,0.00,WeatherCatV1.02B3,2013-01-20 13:22:00,
2013-01-20 08:27:00,36.1,27.6,30.26,NW,317,9.0,13.0,71,0.00,,,0.00,WeatherCatV1.02B3,2013-01-20 13:27:00,
2013-01-20 08:32:00,36.1,28.0,30.27,NE,39,4.0,13.0,72,0.00,,,0.00,WeatherCatV1.02B3,2013-01-20 13:32:00,
2013-01-20 08:37:00,36.0,27.9,30.26,NNW,333,4.0,16.0,72,0.00,,,0.00,WeatherCatV1.02B3,2013-01-20 13:37:00,
2013-01-20 08:42:00,36.0,27.9,30.26,WSW,240,0.0,14.0,72,0.00,,,0.00,WeatherCatV1.02B3,2013-01-20 13:42:00,
2013-01-20 08:47:00,36.0,27.9,30.26,NE,42,15.0,15.0,72,0.00,,,0.00,WeatherCatV1.02B3,2013-01-20 13:47:00,
2013-01-20 08:52:00,36.0,27.9,30.26,North,355,13.0,23.0,72,0.00,,,0.00,WeatherCatV1.02B3,2013-01-20 13:52:00,
2013-01-20 08:57:00,36.1,28.0,30.26,NNE,22,3.0,9.0,72,0.00,,,0.00,WeatherCatV1.02B3,2013-01-20 13:57:00,
2013-01-20 09:02:00,36.0,28.2,30.26,ESE,103,6.0,12.0,73,0.00,,,0.00,WeatherCatV1.02B3,2013-01-20 14:02:00,
2013-01-20 09:07:00,36.1,28.3,30.27,ENE,74,10.0,18.0,73,0.00,,,0.00,WeatherCatV1.02B3,2013-01-20 14:07:00,
2013-01-20 09:12:00,36.1,28.6,30.26,NNE,14,2.0,7.0,74,0.00,,,0.00,WeatherCatV1.02B3,2013-01-20 14:12:00,
2013-01-20 09:17:00,36.1,28.6,30.26,NNW,346,7.0,7.0,74,0.00,,,0.00,WeatherCatV1.02B3,2013-01-20 14:17:00,
2013-01-20 09:22:00,36.1,28.3,30.27,East,94,5.0,18.0,73,0.00,,,0.00,WeatherCatV1.02B3,2013-01-20 14:22:00,
2013-01-20 09:27:00,36.2,28.7,30.26,NNW,327,0.0,13.0,74,0.00,,,0.00,WeatherCatV1.02B3,2013-01-20 14:27:00,
2013-01-20 09:32:00,36.1,28.6,30.27,NNE,15,5.0,14.0,74,0.00,,,0.00,WeatherCatV1.02B3,2013-01-20 14:32:00,
2013-01-20 09:37:00,36.1,28.6,30.27,ESE,111,0.0,15.0,74,0.00,,,0.00,WeatherCatV1.02B3,2013-01-20 14:37:00,
2013-01-20 09:42:00,36.1,28.6,30.27,NNW,336,6.0,14.0,74,0.00,,,0.00,WeatherCatV1.02B3,2013-01-20 14:42:00,
2013-01-20 09:47:00,36.1,28.6,30.27,NNE,23,4.0,15.0,74,0.00,,,0.00,WeatherCatV1.02B3,2013-01-20 14:47:00,
2013-01-20 09:52:00,36.1,29.0,30.27,SW,229,10.0,10.0,75,0.00,,,0.00,WeatherCatV1.02B3,2013-01-20 14:52:00,
2013-01-20 09:57:00,36.2,29.1,30.27,NE,55,4.0,11.0,75,0.00,,,0.00,WeatherCatV1.02B3,2013-01-20 14:57:00,
2013-01-20 10:02:00,36.2,29.1,30.27,North,0,7.0,14.0,75,0.00,,,0.00,WeatherCatV1.02B3,2013-01-20 15:02:00,
2013-01-20 10:07:00,36.3,29.1,30.27,NNE,30,4.0,19.0,75,0.00,,,0.00,WeatherCatV1.02B3,2013-01-20 15:07:00,
2013-01-20 10:12:00,36.5,29.0,30.27,WNW,298,1.0,5.0,74,0.00,,,0.00,WeatherCatV1.02B3,2013-01-20 15:12:00,
2013-01-20 10:17:00,36.6,29.4,30.28,NW,326,9.0,11.0,75,0.00,,,0.00,WeatherCatV1.02B3,2013-01-20 15:17:00,
2013-01-20 10:22:00,36.7,29.5,30.28,WNW,283,4.0,11.0,75,0.00,,,0.00,WeatherCatV1.02B3,2013-01-20 15:22:00,
2013-01-20 10:27:00,36.8,29.6,30.28,WSW,244,4.0,20.0,75,0.00,,,0.00,WeatherCatV1.02B3,2013-01-20 15:27:00,
2013-01-20 10:32:00,36.9,29.7,30.27,NW,309,5.0,17.0,75,0.00,,,0.00,WeatherCatV1.02B3,2013-01-20 15:32:00,
2013-01-20 10:38:00,37.0,29.8,30.27,North,11,13.0,20.0,75,0.00,,,0.00,WeatherCatV1.02B3,2013-01-20 15:38:00,
2013-01-20 10:43:00,37.3,30.1,30.27,NNW,342,10.0,15.0,75,0.00,,,0.00,WeatherCatV1.02B3,2013-01-20 15:43:00,
2013-01-20 10:48:00,37.5,30.0,30.27,SSE,160,3.0,13.0,74,0.00,,,0.00,WeatherCatV1.02B3,2013-01-20 15:48:00,
2013-01-20 10:53:00,37.8,30.3,30.28,NE,40,2.0,20.0,74,0.00,,,0.00,WeatherCatV1.02B3,2013-01-20 15:53:00,
2013-01-20 10:58:00,38.0,30.5,30.27,North,355,6.0,9.0,74,0.00,,,0.00,WeatherCatV1.02B3,2013-01-20 15:58:00,
2013-01-20 11:03:00,38.3,30.8,30.28,North,0,9.0,10.0,74,0.00,,,0.00,WeatherCatV1.02B3,2013-01-20 16:03:00,
2013-01-20 11:08:00,38.5,30.6,30.27,North,5,12.0,12.0,73,0.00,,,0.00,WeatherCatV1.02B3,2013-01-20 16:08:00,
2013-01-20 11:13:00,38.8,30.9,30.27,NE,42,4.0,12.0,73,0.00,,,0.00,WeatherCatV1.02B3,2013-01-20 16:13:00,
2013-01-20 11:18:00,39.2,30.9,30.27,North,0,2.0,11.0,72,0.00,,,0.00,WeatherCatV1.02B3,2013-01-20 16:18:00,
2013-01-20 11:23:00,39.4,30.8,30.26,NW,318,7.0,7.0,71,0.00,,,0.00,WeatherCatV1.02B3,2013-01-20 16:23:00,
2013-01-20 11:28:00,39.6,31.0,30.27,NNW,336,5.0,8.0,71,0.00,,,0.00,WeatherCatV1.02B3,2013-01-20 16:28:00,
2013-01-20 11:33:00,39.7,30.7,30.26,NNE,16,3.0,11.0,70,0.00,,,0.00,WeatherCatV1.02B3,2013-01-20 16:33:00,
2013-01-20 11:38:00,40.1,31.1,30.26,North,0,16.0,16.0,70,0.00,,,0.00,WeatherCatV1.02B3,2013-01-20 16:38:00,
2013-01-20 11:43:00,40.4,30.7,30.26,North,5,7.0,15.0,68,0.00,,,0.00,WeatherCatV1.02B3,2013-01-20 16:43:00,
2013-01-20 11:48:00,40.7,31.0,30.26,NW,317,1.0,11.0,68,0.00,,,0.00,WeatherCatV1.02B3,2013-01-20 16:48:00,
2013-01-20 11:53:00,41.0,30.9,30.25,NW,313,1.0,10.0,67,0.00,,,0.00,WeatherCatV1.02B3,2013-01-20 16:53:00,
2013-01-20 11:58:00,41.3,31.2,30.26,NNW,332,9.0,10.0,67,0.00,,,0.00,WeatherCatV1.02B3,2013-01-20 16:58:00,
2013-01-20 12:03:00,41.5,31.0,30.25,SSW,207,3.0,12.0,66,0.00,,,0.00,WeatherCatV1.02B3,2013-01-20 17:03:00,
2013-01-20 12:08:00,42.0,30.7,30.25,NNE,29,4.0,16.0,64,0.00,,,0.00,WeatherCatV1.02B3,2013-01-20 17:08:00,
2013-01-20 12:13:00,42.3,31.0,30.25,NNW,341,3.0,11.0,64,0.00,,,0.00,WeatherCatV1.02B3,2013-01-20 17:13:00,
2013-01-20 12:18:00,42.4,30.7,30.25,North,355,10.0,12.0,63,0.00,,,0.00,WeatherCatV1.02B3,2013-01-20 17:18:00,
2013-01-20 12:23:00,42.7,30.6,30.25,NW,325,5.0,9.0,62,0.00,,,0.00,WeatherCatV1.02B3,2013-01-20 17:23:00,
2013-01-20 12:28:00,43.1,31.4,30.24,North,350,4.0,12.0,63,0.00,,,0.00,WeatherCatV1.02B3,2013-01-20 17:28:00,
2013-01-20 12:33:00,43.3,31.2,30.24,North,5,8.0,10.0,62,0.00,,,0.00,WeatherCatV1.02B3,2013-01-20 17:33:00,
2013-01-20 12:38:00,43.5,31.0,30.23,NE,53,7.0,17.0,61,0.00,,,0.00,WeatherCatV1.02B3,2013-01-20 17:38:00,
2013-01-20 12:43:00,43.6,30.6,30.23,NW,313,0.0,5.0,60,0.00,,,0.00,WeatherCatV1.02B3,2013-01-20 17:43:00,
2013-01-20 12:48:00,43.6,30.6,30.23,WSW,250,0.0,10.0,60,0.00,,,0.00,WeatherCatV1.02B3,2013-01-20 17:48:00,
2013-01-20 12:53:00,43.8,30.8,30.22,North,355,2.0,6.0,60,0.00,,,0.00,WeatherCatV1.02B3,2013-01-20 17:53:00,
2013-01-20 12:58:00,44.1,31.5,30.23,NNW,346,4.0,9.0,61,0.00,,,0.00,WeatherCatV1.02B3,2013-01-20 17:58:00,
2013-01-20 13:03:00,44.2,30.8,30.23,North,355,8.0,13.0,59,0.00,,,0.00,WeatherCatV1.02B3,2013-01-20 18:03:00,
2013-01-20 13:08:00,43.9,30.1,30.22,NE,44,10.0,18.0,58,0.00,,,0.00,WeatherCatV1.02B3,2013-01-20 18:08:00,
2013-01-20 13:13:00,43.7,30.7,30.22,NW,318,3.0,5.0,60,0.00,,,0.00,WeatherCatV1.02B3,2013-01-20 18:13:00,
2013-01-20 13:18:00,43.7,29.9,30.22,SE,126,0.0,7.0,58,0.00,,,0.00,WeatherCatV1.02B3,2013-01-20 18:18:00,
2013-01-20 13:23:00,43.8,30.8,30.22,NE,43,6.0,12.0,60,0.00,,,0.00,WeatherCatV1.02B3,2013-01-20 18:23:00,
2013-01-20 13:28:00,43.8,30.0,30.22,ENE,75,4.0,19.0,58,0.00,,,0.00,WeatherCatV1.02B3,2013-01-20 18:28:00,
2013-01-20 13:33:00,43.9,30.1,30.21,NNE,24,10.0,22.0,58,0.00,,,0.00,WeatherCatV1.02B3,2013-01-20 18:33:00,
2013-01-20 13:38:00,44.0,30.2,30.22,North,0,2.0,12.0,58,0.00,,,0.00,WeatherCatV1.02B3,2013-01-20 18:38:00,
2013-01-20 13:43:00,44.2,29.9,30.21,NNE,32,11.0,14.0,57,0.00,,,0.00,WeatherCatV1.02B3,2013-01-20 18:43:00,
2013-01-20 13:48:00,44.3,29.2,30.21,NNW,342,6.0,6.0,55,0.00,,,0.00,WeatherCatV1.02B3,2013-01-20 18:48:00,
2013-01-20 13:53:00,44.4,29.3,30.21,North,355,3.0,13.0,55,0.00,,,0.00,WeatherCatV1.02B3,2013-01-20 18:53:00,
2013-01-20 13:58:00,44.4,30.1,30.21,East,86,5.0,15.0,57,0.00,,,0.00,WeatherCatV1.02B3,2013-01-20 18:58:00,
2013-01-20 14:03:00,44.2,29.5,30.20,NW,323,6.0,12.0,56,0.00,,,0.00,WeatherCatV1.02B3,2013-01-20 19:03:00,
2013-01-20 14:08:00,44.3,30.0,30.20,NNE,29,8.0,15.0,57,0.00,,,0.00,WeatherCatV1.02B3,2013-01-20 19:08:00,
2013-01-20 14:13:00,44.2,29.1,30.21,NNW,344,3.0,15.0,55,0.00,,,0.00,WeatherCatV1.02B3,2013-01-20 19:13:00,
2013-01-20 14:18:00,44.3,29.2,30.21,WNW,300,7.0,10.0,55,0.00,,,0.00,WeatherCatV1.02B3,2013-01-20 19:18:00,
2013-01-20 14:23:00,44.5,29.4,30.21,NE,38,5.0,15.0,55,0.00,,,0.00,WeatherCatV1.02B3,2013-01-20 19:23:00,
2013-01-20 14:28:00,44.6,29.0,30.21,ENE,61,3.0,18.0,54,0.00,,,0.00,WeatherCatV1.02B3,2013-01-20 19:28:00,
2013-01-20 14:33:00,44.5,28.4,30.21,NNE,24,1.0,13.0,53,0.00,,,0.00,WeatherCatV1.02B3,2013-01-20 19:33:00,
2013-01-20 14:38:00,44.5,29.4,30.21,North,5,11.0,18.0,55,0.00,,,0.00,WeatherCatV1.02B3,2013-01-20 19:38:00,
2013-01-20 14:43:00,44.5,29.4,30.21,NNE,17,6.0,10.0,55,0.00,,,0.00,WeatherCatV1.02B3,2013-01-20 19:43:00,
2013-01-20 14:48:00,44.5,29.4,30.20,North,10,6.0,6.0,55,0.00,,,0.00,WeatherCatV1.02B3,2013-01-20 19:48:00,
2013-01-20 14:53:00,44.6,29.4,30.21,NNE,19,5.0,12.0,55,0.00,,,0.00,WeatherCatV1.02B3,2013-01-20 19:53:00,
2013-01-20 14:58:00,44.3,29.2,30.20,NW,325,5.0,6.0,55,0.00,,,0.00,WeatherCatV1.02B3,2013-01-20 19:58:00,
2013-01-20 15:03:00,44.2,29.1,30.20,NW,309,1.0,6.0,55,0.00,,,0.00,WeatherCatV1.02B3,2013-01-20 20:03:00,
2013-01-20 15:08:00,44.3,27.8,30.21,North,5,1.0,13.0,52,0.00,,,0.00,WeatherCatV1.02B3,2013-01-20 20:08:00,
2013-01-20 15:13:00,44.3,29.6,30.20,North,350,8.0,13.0,56,0.00,,,0.00,WeatherCatV1.02B3,2013-01-20 20:13:00,
2013-01-20 15:18:00,44.3,29.2,30.21,NNW,329,7.0,16.0,55,0.00,,,0.00,WeatherCatV1.02B3,2013-01-20 20:18:00,
2013-01-20 15:23:00,44.3,29.2,30.21,NNW,344,6.0,9.0,55,0.00,,,0.00,WeatherCatV1.02B3,2013-01-20 20:23:00,
2013-01-20 15:28:00,44.5,29.4,30.21,North,10,7.0,7.0,55,0.00,,,0.00,WeatherCatV1.02B3,2013-01-20 20:28:00,
2013-01-20 15:33:00,44.5,28.9,30.21,North,355,10.0,10.0,54,0.00,,,0.00,WeatherCatV1.02B3,2013-01-20 20:33:00,
2013-01-20 15:38:00,44.4,28.8,30.21,West,279,13.0,20.0,54,0.00,,,0.00,WeatherCatV1.02B3,2013-01-20 20:38:00,
2013-01-20 15:43:00,44.4,28.4,30.21,NE,51,10.0,12.0,53,0.00,,,0.00,WeatherCatV1.02B3,2013-01-20 20:43:00,
2013-01-20 15:48:00,44.3,28.3,30.21,North,5,11.0,11.0,53,0.00,,,0.00,WeatherCatV1.02B3,2013-01-20 20:48:00,
2013-01-20 15:53:00,44.1,28.1,30.22,North,355,12.0,19.0,53,0.00,,,0.00,WeatherCatV1.02B3,2013-01-20 20:53:00,
2013-01-20 15:58:00,44.0,28.4,30.21,NNW,329,1.0,9.0,54,0.00,,,0.00,WeatherCatV1.02B3,2013-01-20 20:58:00,
2013-01-20 16:03:00,44.0,28.0,30.22,NNE,26,3.0,7.0,53,0.00,,,0.00,WeatherCatV1.02B3,2013-01-20 21:03:00,
2013-01-20 16:08:00,44.0,27.5,30.22,NNW,336,7.0,10.0,52,0.00,,,0.00,WeatherCatV1.02B3,2013-01-20 21:08:00,
2013-01-20 16:13:00,44.1,27.1,30.22,NW,326,5.0,14.0,51,0.00,,,0.00,WeatherCatV1.02B3,2013-01-20 21:13:00,
2013-01-20 16:18:00,44.2,27.2,30.22,NNE,21,2.0,4.0,51,0.00,,,0.00,WeatherCatV1.02B3,2013-01-20 21:18:00,
2013-01-20 16:23:00,44.0,27.0,30.22,NNE,31,5.0,10.0,51,0.00,,,0.00,WeatherCatV1.02B3,2013-01-20 21:23:00,
2013-01-20 16:28:00,43.6,27.1,30.22,North,5,3.0,4.0,52,0.00,,,0.00,WeatherCatV1.02B3,2013-01-20 21:28:00,
2013-01-20 16:33:00,43.3,26.9,30.22,NW,307,5.0,6.0,52,0.00,,,0.00,WeatherCatV1.02B3,2013-01-20 21:33:00,
2013-01-20 16:38:00,43.1,27.1,30.22,NNW,344,3.0,4.0,53,0.00,,,0.00,WeatherCatV1.02B3,2013-01-20 21:38:00,
2013-01-20 16:43:00,42.9,27.9,30.22,NE,50,2.0,10.0,55,0.00,,,0.00,WeatherCatV1.02B3,2013-01-20 21:43:00,
2013-01-20 16:48:00,42.6,28.4,30.22,NE,36,4.0,10.0,57,0.00,,,0.00,WeatherCatV1.02B3,2013-01-20 21:48:00,
2013-01-20 16:53:00,42.1,28.4,30.23,NNE,33,1.0,14.0,58,0.00,,,0.00,WeatherCatV1.02B3,2013-01-20 21:53:00,
2013-01-20 16:58:00,41.8,28.1,30.23,North,355,6.0,9.0,58,0.00,,,0.00,WeatherCatV1.02B3,2013-01-20 21:58:00,
2013-01-20 17:03:00,41.7,28.4,30.23,North,5,4.0,11.0,59,0.00,,,0.00,WeatherCatV1.02B3,2013-01-20 22:03:00,
2013-01-20 17:08:00,41.5,28.3,30.23,NNE,22,10.0,18.0,59,0.00,,,0.00,WeatherCatV1.02B3,2013-01-20 22:08:00,
2013-01-20 17:13:00,41.5,28.3,30.23,NNW,348,3.0,5.0,59,0.00,,,0.00,WeatherCatV1.02B3,2013-01-20 22:13:00,
2013-01-20 17:18:00,41.3,28.5,30.23,NNW,331,3.0,11.0,60,0.00,,,0.00,WeatherCatV1.02B3,2013-01-20 22:18:00,
2013-01-20 17:23:00,41.2,28.0,30.23,West,275,7.0,7.0,59,0.00,,,0.00,WeatherCatV1.02B3,2013-01-20 22:23:00,
2013-01-20 17:28:00,41.3,26.4,30.23,West,276,7.0,19.0,55,0.00,,,0.00,WeatherCatV1.02B3,2013-01-20 22:28:00,
2013-01-20 17:33:00,41.5,27.0,30.23,West,275,6.0,12.0,56,0.00,,,0.00,WeatherCatV1.02B3,2013-01-20 22:33:00,
2013-01-20 17:38:00,41.4,26.9,30.24,NE,40,3.0,4.0,56,0.00,,,0.00,WeatherCatV1.02B3,2013-01-20 22:38:00,
2013-01-20 17:43:00,41.1,27.0,30.23,NNE,15,0.0,3.0,57,0.00,,,0.00,WeatherCatV1.02B3,2013-01-20 22:43:00,
2013-01-20 17:48:00,40.8,26.8,30.24,NNE,24,4.0,4.0,57,0.00,,,0.00,WeatherCatV1.02B3,2013-01-20 22:48:00,
2013-01-20 17:53:00,40.7,27.1,30.24,North,0,1.0,6.0,58,0.00,,,0.00,WeatherCatV1.02B3,2013-01-20 22:53:00,
2013-01-20 17:58:00,40.5,26.9,30.24,NNE,32,1.0,3.0,58,0.00,,,0.00,WeatherCatV1.02B3,2013-01-20 22:58:00,
2013-01-20 18:03:00,40.2,26.6,30.24,NE,52,0.0,6.0,58,0.00,,,0.00,WeatherCatV1.02B3,2013-01-20 23:03:00,
2013-01-20 18:08:00,40.0,27.3,30.24,NNW,345,1.0,6.0,60,0.00,,,0.00,WeatherCatV1.02B3,2013-01-20 23:08:00,
2013-01-20 18:13:00,39.9,27.2,30.25,NNW,347,0.0,5.0,60,0.00,,,0.00,WeatherCatV1.02B3,2013-01-20 23:13:00,
2013-01-20 18:18:00,39.7,27.0,30.25,NNW,336,2.0,5.0,60,0.00,,,0.00,WeatherCatV1.02B3,2013-01-20 23:18:00,
2013-01-20 18:23:00,39.5,26.8,30.25,North,355,5.0,10.0,60,0.00,,,0.00,WeatherCatV1.02B3,2013-01-20 23:23:00,
2013-01-20 18:28:00,39.5,26.8,30.25,NNW,347,0.0,6.0,60,0.00,,,0.00,WeatherCatV1.02B3,2013-01-20 23:28:00,
2013-01-20 18:33:00,39.4,26.7,30.25,North,5,4.0,5.0,60,0.00,,,0.00,WeatherCatV1.02B3,2013-01-20 23:33:00,
2013-01-20 18:38:00,39.3,26.6,30.25,NE,51,0.0,2.0,60,0.00,,,0.00,WeatherCatV1.02B3,2013-01-20 23:38:00,
2013-01-20 18:43:00,39.0,26.7,30.24,North,349,2.0,6.0,61,0.00,,,0.00,WeatherCatV1.02B3,2013-01-20 23:43:00,
2013-01-20 18:48:00,38.7,26.8,30.25,NE,34,3.0,11.0,62,0.00,,,0.00,WeatherCatV1.02B3,2013-01-20 23:48:00,
2013-01-20 18:53:00,38.5,26.2,30.25,NE,52,0.0,11.0,61,0.00,,,0.00,WeatherCatV1.02B3,2013-01-20 23:53:00,
2013-01-20 18:58:00,38.6,26.3,30.25,NNW,344,6.0,7.0,61,0.00,,,0.00,WeatherCatV1.02B3,2013-01-20 23:58:00,
2013-01-20 19:03:00,38.6,26.3,30.25,ENE,62,4.0,4.0,61,0.00,,,0.00,WeatherCatV1.02B3,2013-01-21 00:03:00,
2013-01-20 19:08:00,38.5,26.6,30.25,NE,42,3.0,6.0,62,0.00,,,0.00,WeatherCatV1.02B3,2013-01-21 00:08:00,
2013-01-20 19:13:00,38.5,26.6,30.25,NNW,348,1.0,4.0,62,0.00,,,0.00,WeatherCatV1.02B3,2013-01-21 00:13:00,
2013-01-20 19:18:00,38.5,26.6,30.25,North,9,7.0,7.0,62,0.00,,,0.00,WeatherCatV1.02B3,2013-01-21 00:18:00,
2013-01-20 19:23:00,38.4,26.5,30.25,North,355,5.0,5.0,62,0.00,,,0.00,WeatherCatV1.02B3,2013-01-21 00:23:00,
2013-01-20 19:28:00,38.3,26.8,30.25,ENE,64,0.0,2.0,63,0.00,,,0.00,WeatherCatV1.02B3,2013-01-21 00:28:00,
2013-01-20 19:33:00,38.3,26.8,30.24,NW,319,2.0,4.0,63,0.00,,,0.00,WeatherCatV1.02B3,2013-01-21 00:33:00,
2013-01-20 19:38:00,38.0,26.9,30.25,ENE,57,5.0,10.0,64,0.00,,,0.00,WeatherCatV1.02B3,2013-01-21 00:38:00,
2013-01-20 19:43:00,37.9,26.8,30.25,ENE,60,2.0,6.0,64,0.00,,,0.00,WeatherCatV1.02B3,2013-01-21 00:43:00,
2013-01-20 19:48:00,37.7,27.0,30.25,NNW,336,5.0,14.0,65,0.00,,,0.00,WeatherCatV1.02B3,2013-01-21 00:48:00,
2013-01-20 19:53:00,37.7,26.6,30.25,North,355,7.0,7.0,64,0.00,,,0.00,WeatherCatV1.02B3,2013-01-21 00:53:00,
2013-01-20 19:58:00,37.7,26.6,30.25,NW,311,7.0,8.0,64,0.00,,,0.00,WeatherCatV1.02B3,2013-01-21 00:58:00,
2013-01-20 20:03:00,37.8,26.7,30.25,North,0,0.0,5.0,64,0.00,,,0.00,WeatherCatV1.02B3,2013-01-21 01:03:00,
2013-01-20 20:08:00,37.7,26.6,30.25,WSW,248,2.0,3.0,64,0.00,,,0.00,WeatherCatV1.02B3,2013-01-21 01:08:00,
2013-01-20 20:13:00,37.7,26.3,30.25,SW,214,3.0,5.0,63,0.00,,,0.00,WeatherCatV1.02B3,2013-01-21 01:13:00,
2013-01-20 20:18:00,37.8,26.7,30.25,ENE,61,0.0,9.0,64,0.00,,,0.00,WeatherCatV1.02B3,2013-01-21 01:18:00,
2013-01-20 20:23:00,37.7,26.6,30.25,NNW,348,3.0,4.0,64,0.00,,,0.00,WeatherCatV1.02B3,2013-01-21 01:23:00,
2013-01-20 20:28:00,37.6,26.5,30.25,WNW,289,4.0,8.0,64,0.00,,,0.00,WeatherCatV1.02B3,2013-01-21 01:28:00,
2013-01-20 20:34:00,37.5,26.4,30.25,North,355,4.0,10.0,64,0.00,,,0.00,WeatherCatV1.02B3,2013-01-21 01:34:00,
2013-01-20 20:39:00,37.4,26.4,30.25,NNE,25,4.0,10.0,64,0.00,,,0.00,WeatherCatV1.02B3,2013-01-21 01:39:00,
2013-01-20 20:44:00,37.3,26.3,30.25,WNW,288,12.0,12.0,64,0.00,,,0.00,WeatherCatV1.02B3,2013-01-21 01:44:00,
2013-01-20 20:49:00,37.3,26.6,30.25,South,183,1.0,8.0,65,0.00,,,0.00,WeatherCatV1.02B3,2013-01-21 01:49:00,
2013-01-20 20:54:00,37.1,26.4,30.24,NNW,346,0.0,2.0,65,0.00,,,0.00,WeatherCatV1.02B3,2013-01-21 01:54:00,
2013-01-20 20:59:00,37.1,26.4,30.24,West,272,3.0,3.0,65,0.00,,,0.00,WeatherCatV1.02B3,2013-01-21 01:59:00,
2013-01-20 21:04:00,36.9,26.6,30.24,NE,36,1.0,7.0,66,0.00,,,0.00,WeatherCatV1.02B3,2013-01-21 02:04:00,
2013-01-20 21:09:00,36.7,26.4,30.24,ENE,63,2.0,4.0,66,0.00,,,0.00,WeatherCatV1.02B3,2013-01-21 02:09:00,
2013-01-20 21:14:00,36.5,26.6,30.24,North,9,0.0,6.0,67,0.00,,,0.00,WeatherCatV1.02B3,2013-01-21 02:14:00,
2013-01-20 21:19:00,36.5,26.6,30.24,NW,306,3.0,6.0,67,0.00,,,0.00,WeatherCatV1.02B3,2013-01-21 02:19:00,
2013-01-20 21:24:00,36.4,26.9,30.24,North,350,2.0,10.0,68,0.00,,,0.00,WeatherCatV1.02B3,2013-01-21 02:24:00,
2013-01-20 21:29:00,36.3,26.8,30.24,North,10,2.0,5.0,68,0.00,,,0.00,WeatherCatV1.02B3,2013-01-21 02:29:00,
2013-01-20 21:34:00,36.2,26.7,30.24,WNW,300,0.0,3.0,68,0.00,,,0.00,WeatherCatV1.02B3,2013-01-21 02:34:00,
2013-01-20 21:39:00,36.1,26.6,30.24,North,9,0.0,4.0,68,0.00,,,0.00,WeatherCatV1.02B3,2013-01-21 02:39:00,
2013-01-20 21:44:00,36.1,26.6,30.24,NNW,348,0.0,3.0,68,0.00,,,0.00,WeatherCatV1.02B3,2013-01-21 02:44:00,
2013-01-20 21:49:00,36.1,26.6,30.24,North,355,1.0,5.0,68,0.00,,,0.00,WeatherCatV1.02B3,2013-01-21 02:49:00,
2013-01-20 21:54:00,36.0,26.8,30.24,North,9,1.0,4.0,69,0.00,,,0.00,WeatherCatV1.02B3,2013-01-21 02:54:00,
2013-01-20 21:59:00,36.0,26.8,30.24,NNW,336,0.0,5.0,69,0.00,,,0.00,WeatherCatV1.02B3,2013-01-21 02:59:00,
2013-01-20 22:04:00,36.0,26.8,30.24,NW,321,0.0,3.0,69,0.00,,,0.00,WeatherCatV1.02B3,2013-01-21 03:04:00,
2013-01-20 22:09:00,36.0,26.8,30.23,NNW,342,2.0,6.0,69,0.00,,,0.00,WeatherCatV1.02B3,2013-01-21 03:09:00,
2013-01-20 22:14:00,35.9,27.1,30.24,North,355,0.0,2.0,70,0.00,,,0.00,WeatherCatV1.02B3,2013-01-21 03:14:00,
2013-01-20 22:19:00,35.9,27.1,30.24,North,0,4.0,11.0,70,0.00,,,0.00,WeatherCatV1.02B3,2013-01-21 03:19:00,
2013-01-20 22:24:00,36.0,27.2,30.24,NNW,340,3.0,6.0,70,0.00,,,0.00,WeatherCatV1.02B3,2013-01-21 03:24:00,
2013-01-20 22:29:00,36.1,27.3,30.24,NW,313,3.0,11.0,70,0.00,,,0.00,WeatherCatV1.02B3,2013-01-21 03:29:00,
2013-01-20 22:34:00,36.4,27.2,30.24,NW,315,4.0,5.0,69,0.00,,,0.00,WeatherCatV1.02B3,2013-01-21 03:34:00,
2013-01-20 22:39:00,36.5,27.7,30.24,NW,313,1.0,3.0,70,0.00,,,0.00,WeatherCatV1.02B3,2013-01-21 03:39:00,
2013-01-20 22:44:00,36.4,27.6,30.24,NNW,331,0.0,6.0,70,0.00,,,0.00,WeatherCatV1.02B3,2013-01-21 03:44:00,
2013-01-20 22:49:00,36.4,27.2,30.24,WNW,302,0.0,2.0,69,0.00,,,0.00,WeatherCatV1.02B3,2013-01-21 03:49:00,
2013-01-20 22:54:00,36.3,27.5,30.24,North,350,0.0,4.0,70,0.00,,,0.00,WeatherCatV1.02B3,2013-01-21 03:54:00,
2013-01-20 22:59:00,36.2,27.4,30.24,WNW,296,0.0,4.0,70,0.00,,,0.00,WeatherCatV1.02B3,2013-01-21 03:59:00,
2013-01-20 23:04:00,36.2,27.4,30.24,North,0,0.0,2.0,70,0.00,,,0.00,WeatherCatV1.02B3,2013-01-21 04:04:00,
2013-01-20 23:09:00,36.2,27.4,30.24,NW,321,1.0,6.0,70,0.00,,,0.00,WeatherCatV1.02B3,2013-01-21 04:09:00,
2013-01-20 23:14:00,36.2,27.4,30.24,North,355,2.0,9.0,70,0.00,,,0.00,WeatherCatV1.02B3,2013-01-21 04:14:00,
2013-01-20 23:19:00,36.3,27.1,30.24,NNW,341,0.0,4.0,69,0.00,,,0.00,WeatherCatV1.02B3,2013-01-21 04:19:00,
2013-01-20 23:24:00,36.4,27.2,30.24,West,277,0.0,5.0,69,0.00,,,0.00,WeatherCatV1.02B3,2013-01-21 04:24:00,
2013-01-20 23:29:00,36.4,27.2,30.24,SW,236,0.0,0.0,69,0.00,,,0.00,WeatherCatV1.02B3,2013-01-21 04:29:00,
2013-01-20 23:34:00,36.2,27.0,30.24,North,0,0.0,3.0,69,0.00,,,0.00,WeatherCatV1.02B3,2013-01-21 04:34:00,
2013-01-20 23:39:00,36.2,26.7,30.24,WSW,245,0.0,2.0,68,0.00,,,0.00,WeatherCatV1.02B3,2013-01-21 04:39:00,
2013-01-20 23:44:00,36.1,26.9,30.24,WSW,245,0.0,1.0,69,0.00,,,0.00,WeatherCatV1.02B3,2013-01-21 04:44:00,
2013-01-20 23:49:00,36.1,26.9,30.24,WSW,245,0.0,0.0,69,0.00,,,0.00,WeatherCatV1.02B3,2013-01-21 04:49:00,
2013-01-20 23:54:00,36.0,26.5,30.24,WSW,245,0.0,2.0,68,0.00,,,0.00,WeatherCatV1.02B3,2013-01-21 04:54:00,
2013-01-20 23:59:00,35.9,26.7,30.24,WSW,245,0.0,0.0,69,0.00,,,0.00,WeatherCatV1.02B3,2013-01-21 04:59:00,